Ocean Shores, WA

3:01 AM PDT on July 25, 2017 (GMT -0700)
Near Ocean Shores Elementary School | | Change Station

Elev 17 ft 46.97 °N, 124.16 °W | Updated 26 seconds ago

Clear
Clear
52.2 °F
Feels Like 52.2 °F
N
0.0
Wind Variable Wind from SSW

Today
High -- | Low -- °F
--% Chance of Precip.
Yesterday
High -- | Low -- °F
Precip. -- in
Pressure 30.03 in
Visibility 6.0 miles
Clouds Few 600 ft
Dew Point 51 °F
Humidity 98%
Rainfall 0.00 in
Snow Depth Not available.
5:48 AM 8:57 PM
Waxing Crescent, 6% visible
METAR KHQM 250953Z AUTO 31003KT 6SM BR FEW006 13/12 A3002 RMK AO2 SLP167 T01280122
Pressure 30.03 in
Visibility 6.0 miles
Clouds Few 600 ft
Dew Point 51 °F
Humidity 98%
Rainfall 0.00 in
Snow Depth Not available.
5:48 AM 8:57 PM
Waxing Crescent, 6% visible
METAR KHQM 250953Z AUTO 31003KT 6SM BR FEW006 13/12 A3002 RMK AO2 SLP167 T01280122

Get Severe Weather Alerts

Thanks for signing up!

Be on the lookout for a verification email in your inbox.

You'll start receiving the daily forecast at 6 AM.

×

10-Day Weather Forecast

Almanac

Astronomy

Jul. 25, 2017 Rise Set
Actual Time
Civil Twilight
Nautical Twilight
Astronomical Twilight
Moon
Length of Visible Light
Length of Day
Tomorrow will be .
, % of the Moon is Illuminated

Today's Extremes

State Highs State Lows

Community

WunderPhotos

Category 6

Welcome to Category 6. This is the collective home for Weather Underground's featured writeups by Dr. Jeff Masters (right), Bob Henson (left), Chris Burt, and other regular contributors.

Nearby

Air Quality

  Air Quality AQ Index Pollutant
Not available.

Snow Depth

Station Depth Elevation

Earthquake Activity

City Distance Mag. Time & Date
Minimum magnitude displayed is 2.5.

Coastal Water Temperatures

Place Temperature

Stations

Nearby Weather Stations

Station Location Temp. Windchill Dew Point Humidity Wind Precip. Elev Updated Type
                   

Watches & Warnings

There are currently no watches in effect.